Portada
METAR-TAF:

METAR-TAF

Aeroports :

Haikou, Xina

latitud: 19-56-05N, longitud: 110-27-32E, altitud: 23 m

Observació

L'informe es va fer fa 56 minuts, a les 19:00 UTC
Vent calma
Temperatura 25°C
Humitat 100%
Pressió 1005 hPa
Visibilitat 10 km o més
sense núvols per sota de 1500 mi sense presència de cumulonimbus.

METAR: ZJHK 291900Z 00000MPS CAVOK 25/25 Q1005 NOSIG

Hora: 03:56 (19:56 UTC)

Pronòstic

L'informe es va fer fa 4 hores i 53 minuts, a les 15:03 UTC
Pronòstic vàlid del 29 a les 18 UTC al 30 a les 18 UTC
Vent 8 kt del Sud-Est
Visibilitat 10 km o més
Núvols disperses a una alçada de 2000 ft
Temporalment
l' 30 a les 04 UTC al 30 a les 10 UTC
Cel ennuvolat a una alçada de 2000 ft
Escasses núvols a una alçada de 2600 ft, Cumulonimbus.
tempesta, pluja

TAF: ZJHK 291503Z 2918/3018 13004MPS 9999 SCT020 TX30/3006Z TN26/2921Z TEMPO 3004/3010 TSRA BKN020 FEW026CB

Observacions i pronòstics meteorològics de més de 4000 aeroports (METAR i TAF).

Les estacions disponibles són els punts grocs i vermells al mapa.

Posi el ratolí al punt desitjat per veure el nom de l'estació.

Feu clic per veure les observacions i els pronòstics meteorològics.

Per canviar el mapa: feu clic els botons verds amb una creu de color negre per apropar; al botó verd amb un guió per allunyar la imatge; o en les fletxes verdes per a mapes adjacents.


METAR-TAF: